sensor_id;sensor_type;location;lat;lon;timestamp;P1;durP1;ratioP1;P2;durP2;ratioP2
3873;SDS011;1952;50.872;6.692;2023-04-03T00:30:17;2.50;;;2.40;;
3873;SDS011;1952;50.872;6.692;2023-04-03T00:32:46;2.70;;;2.50;;
3873;SDS011;1952;50.872;6.692;2023-04-03T00:35:15;3.80;;;2.30;;
3873;SDS011;1952;50.872;6.692;2023-04-03T00:37:43;3.30;;;3.00;;
3873;SDS011;1952;50.872;6.692;2023-04-03T00:40:13;3.53;;;2.30;;
3873;SDS011;1952;50.872;6.692;2023-04-03T00:42:42;2.70;;;2.50;;
3873;SDS011;1952;50.872;6.692;2023-04-03T00:45:25;3.07;;;2.50;;
3873;SDS011;1952;50.872;6.692;2023-04-03T00:47:54;2.93;;;2.73;;
3873;SDS011;1952;50.872;6.692;2023-04-03T00:50:22;5.43;;;2.60;;
3873;SDS011;1952;50.872;6.692;2023-04-03T00:52:51;2.57;;;2.37;;
3873;SDS011;1952;50.872;6.692;2023-04-03T00:55:19;3.93;;;2.90;;
3873;SDS011;1952;50.872;6.692;2023-04-03T00:57:47;2.80;;;2.60;;
3873;SDS011;1952;50.872;6.692;2023-04-03T01:00:17;3.10;;;2.90;;
3873;SDS011;1952;50.872;6.692;2023-04-03T01:02:48;3.53;;;3.23;;
3873;SDS011;1952;50.872;6.692;2023-04-03T01:05:19;2.87;;;2.63;;
3873;SDS011;1952;50.872;6.692;2023-04-03T01:07:48;3.20;;;2.90;;
3873;SDS011;1952;50.872;6.692;2023-04-03T01:10:17;3.83;;;2.93;;
3873;SDS011;1952;50.872;6.692;2023-04-03T01:12:47;3.10;;;2.90;;
3873;SDS011;1952;50.872;6.692;2023-04-03T01:15:16;3.53;;;3.23;;
3873;SDS011;1952;50.872;6.692;2023-04-03T01:17:45;3.87;;;3.37;;
3873;SDS011;1952;50.872;6.692;2023-04-03T01:20:31;4.20;;;3.33;;
3873;SDS011;1952;50.872;6.692;2023-04-03T01:23:07;10.50;;;3.80;;
3873;SDS011;1952;50.872;6.692;2023-04-03T01:25:39;3.57;;;3.30;;
3873;SDS011;1952;50.872;6.692;2023-04-03T01:28:11;5.90;;;3.80;;
3873;SDS011;1952;50.872;6.692;2023-04-03T01:30:42;3.80;;;3.50;;
3873;SDS011;1952;50.872;6.692;2023-04-03T01:33:13;4.90;;;4.50;;
3873;SDS011;1952;50.872;6.692;2023-04-03T01:35:41;5.33;;;4.70;;
3873;SDS011;1952;50.872;6.692;2023-04-03T01:38:09;6.23;;;4.90;;
3873;SDS011;1952;50.872;6.692;2023-04-03T01:40:37;6.90;;;5.33;;
3873;SDS011;1952;50.872;6.692;2023-04-03T01:43:05;7.90;;;4.70;;
3873;SDS011;1952;50.872;6.692;2023-04-03T01:45:33;5.20;;;4.80;;
3873;SDS011;1952;50.872;6.692;2023-04-03T01:48:02;5.07;;;4.33;;
3873;SDS011;1952;50.872;6.692;2023-04-03T01:50:32;5.17;;;4.67;;
3873;SDS011;1952;50.872;6.692;2023-04-03T01:53:00;7.57;;;5.40;;
3873;SDS011;1952;50.872;6.692;2023-04-03T01:55:28;6.33;;;5.73;;
3873;SDS011;1952;50.872;6.692;2023-04-03T01:57:57;5.40;;;5.00;;
3873;SDS011;1952;50.872;6.692;2023-04-03T02:00:26;6.73;;;5.03;;
3873;SDS011;1952;50.872;6.692;2023-04-03T02:02:54;6.07;;;5.13;;
3873;SDS011;1952;50.872;6.692;2023-04-03T02:05:22;4.47;;;4.13;;
3873;SDS011;1952;50.872;6.692;2023-04-03T02:07:52;4.60;;;4.23;;
3873;SDS011;1952;50.872;6.692;2023-04-03T02:10:20;5.30;;;4.47;;
3873;SDS011;1952;50.872;6.692;2023-04-03T02:12:49;5.90;;;5.40;;
3873;SDS011;1952;50.872;6.692;2023-04-03T02:15:19;5.23;;;4.50;;
3873;SDS011;1952;50.872;6.692;2023-04-03T02:17:48;4.77;;;4.27;;
3873;SDS011;1952;50.872;6.692;2023-04-03T02:20:16;5.40;;;5.00;;
3873;SDS011;1952;50.872;6.692;2023-04-03T02:22:44;4.30;;;3.90;;
3873;SDS011;1952;50.872;6.692;2023-04-03T02:25:14;5.17;;;4.67;;
3873;SDS011;1952;50.872;6.692;2023-04-03T02:27:43;5.43;;;4.40;;
3873;SDS011;1952;50.872;6.692;2023-04-03T02:30:11;5.80;;;4.63;;
3873;SDS011;1952;50.872;6.692;2023-04-03T02:32:40;5.13;;;4.47;;
3873;SDS011;1952;50.872;6.692;2023-04-03T02:35:09;5.27;;;4.87;;
3873;SDS011;1952;50.872;6.692;2023-04-03T02:37:38;6.67;;;5.27;;
3873;SDS011;1952;50.872;6.692;2023-04-03T02:40:07;4.60;;;4.30;;
3873;SDS011;1952;50.872;6.692;2023-04-03T02:42:38;5.20;;;4.70;;
3873;SDS011;1952;50.872;6.692;2023-04-03T02:45:07;5.23;;;4.67;;
3873;SDS011;1952;50.872;6.692;2023-04-03T02:47:35;4.40;;;4.00;;
3873;SDS011;1952;50.872;6.692;2023-04-03T02:50:04;5.17;;;4.77;;
3873;SDS011;1952;50.872;6.692;2023-04-03T02:52:32;4.80;;;3.70;;
3873;SDS011;1952;50.872;6.692;2023-04-03T02:55:00;3.83;;;3.53;;
3873;SDS011;1952;50.872;6.692;2023-04-03T02:57:29;5.07;;;4.67;;
3873;SDS011;1952;50.872;6.692;2023-04-03T02:59:59;4.37;;;4.03;;
3873;SDS011;1952;50.872;6.692;2023-04-03T03:02:27;4.93;;;4.50;;
3873;SDS011;1952;50.872;6.692;2023-04-03T03:04:55;4.80;;;4.40;;
3873;SDS011;1952;50.872;6.692;2023-04-03T03:07:24;5.20;;;4.70;;
3873;SDS011;1952;50.872;6.692;2023-04-03T03:09:52;4.50;;;4.10;;
3873;SDS011;1952;50.872;6.692;2023-04-03T03:12:20;5.80;;;5.30;;
3873;SDS011;1952;50.872;6.692;2023-04-03T03:14:50;5.50;;;5.00;;
3873;SDS011;1952;50.872;6.692;2023-04-03T03:17:20;4.60;;;4.30;;
3873;SDS011;1952;50.872;6.692;2023-04-03T03:19:48;5.60;;;5.10;;
3873;SDS011;1952;50.872;6.692;2023-04-03T03:22:16;4.57;;;4.23;;
3873;SDS011;1952;50.872;6.692;2023-04-03T03:24:44;6.07;;;5.47;;
3873;SDS011;1952;50.872;6.692;2023-04-03T03:27:13;5.40;;;4.90;;
3873;SDS011;1952;50.872;6.692;2023-04-03T03:29:42;5.20;;;4.70;;
3873;SDS011;1952;50.872;6.692;2023-04-03T03:32:10;4.90;;;4.40;;
3873;SDS011;1952;50.872;6.692;2023-04-03T03:34:40;5.77;;;4.73;;
3873;SDS011;1952;50.872;6.692;2023-04-03T03:37:08;6.73;;;5.17;;
3873;SDS011;1952;50.872;6.692;2023-04-03T03:39:36;5.97;;;5.47;;
3873;SDS011;1952;50.872;6.692;2023-04-03T03:42:04;5.37;;;4.87;;
3873;SDS011;1952;50.872;6.692;2023-04-03T03:44:33;6.90;;;4.40;;
3873;SDS011;1952;50.872;6.692;2023-04-03T03:47:00;4.77;;;4.40;;
3873;SDS011;1952;50.872;6.692;2023-04-03T03:49:29;5.70;;;5.20;;
3873;SDS011;1952;50.872;6.692;2023-04-03T03:51:58;5.20;;;4.80;;
3873;SDS011;1952;50.872;6.692;2023-04-03T03:54:27;4.47;;;4.07;;
3873;SDS011;1952;50.872;6.692;2023-04-03T03:56:55;4.90;;;4.50;;
3873;SDS011;1952;50.872;6.692;2023-04-03T03:59:24;5.47;;;4.97;;
3873;SDS011;1952;50.872;6.692;2023-04-03T04:01:54;5.17;;;4.63;;
3873;SDS011;1952;50.872;6.692;2023-04-03T04:04:22;5.07;;;4.00;;
3873;SDS011;1952;50.872;6.692;2023-04-03T04:06:50;4.87;;;4.47;;
3873;SDS011;1952;50.872;6.692;2023-04-03T04:09:20;4.63;;;4.23;;
3873;SDS011;1952;50.872;6.692;2023-04-03T04:11:48;3.87;;;3.60;;
3873;SDS011;1952;50.872;6.692;2023-04-03T04:14:17;4.80;;;4.07;;
3873;SDS011;1952;50.872;6.692;2023-04-03T04:16:46;4.20;;;3.80;;
3873;SDS011;1952;50.872;6.692;2023-04-03T04:19:14;4.37;;;3.97;;
3873;SDS011;1952;50.872;6.692;2023-04-03T04:21:43;3.87;;;3.67;;
3873;SDS011;1952;50.872;6.692;2023-04-03T04:24:11;3.57;;;3.27;;
3873;SDS011;1952;50.872;6.692;2023-04-03T04:26:41;3.97;;;3.67;;
3873;SDS011;1952;50.872;6.692;2023-04-03T04:29:09;3.90;;;3.60;;
3873;SDS011;1952;50.872;6.692;2023-04-03T04:31:38;3.60;;;3.30;;
3873;SDS011;1952;50.872;6.692;2023-04-03T04:34:06;3.87;;;3.47;;
3873;SDS011;1952;50.872;6.692;2023-04-03T04:36:34;4.13;;;3.83;;
3873;SDS011;1952;50.872;6.692;2023-04-03T04:39:03;4.70;;;4.30;;
3873;SDS011;1952;50.872;6.692;2023-04-03T04:41:31;3.60;;;3.40;;
3873;SDS011;1952;50.872;6.692;2023-04-03T04:44:01;3.83;;;3.53;;
3873;SDS011;1952;50.872;6.692;2023-04-03T04:46:29;3.63;;;3.33;;
3873;SDS011;1952;50.872;6.692;2023-04-03T04:48:57;6.53;;;3.70;;
3873;SDS011;1952;50.872;6.692;2023-04-03T04:51:25;4.50;;;3.77;;
3873;SDS011;1952;50.872;6.692;2023-04-03T04:54:00;5.20;;;4.27;;
3873;SDS011;1952;50.872;6.692;2023-04-03T04:56:28;3.80;;;3.10;;
3873;SDS011;1952;50.872;6.692;2023-04-03T04:58:57;4.47;;;4.07;;
3873;SDS011;1952;50.872;6.692;2023-04-03T05:01:26;3.83;;;3.53;;
3873;SDS011;1952;50.872;6.692;2023-04-03T05:03:55;5.10;;;3.50;;
3873;SDS011;1952;50.872;6.692;2023-04-03T05:06:23;3.80;;;3.50;;
3873;SDS011;1952;50.872;6.692;2023-04-03T05:08:51;4.20;;;3.50;;
3873;SDS011;1952;50.872;6.692;2023-04-03T05:11:19;3.90;;;3.53;;
3873;SDS011;1952;50.872;6.692;2023-04-03T05:13:50;3.40;;;3.20;;
3873;SDS011;1952;50.872;6.692;2023-04-03T05:16:18;5.13;;;4.30;;
3873;SDS011;1952;50.872;6.692;2023-04-03T05:18:48;4.07;;;3.67;;
3873;SDS011;1952;50.872;6.692;2023-04-03T05:21:16;4.03;;;3.50;;
3873;SDS011;1952;50.872;6.692;2023-04-03T05:23:45;4.37;;;3.97;;
3873;SDS011;1952;50.872;6.692;2023-04-03T05:26:13;4.90;;;4.33;;
3873;SDS011;1952;50.872;6.692;2023-04-03T05:28:42;3.80;;;3.60;;
3873;SDS011;1952;50.872;6.692;2023-04-03T05:31:10;3.90;;;3.00;;
3873;SDS011;1952;50.872;6.692;2023-04-03T05:33:39;4.93;;;3.80;;
3873;SDS011;1952;50.872;6.692;2023-04-03T05:36:09;3.60;;;3.40;;
3873;SDS011;1952;50.872;6.692;2023-04-03T05:38:39;4.50;;;2.97;;
3873;SDS011;1952;50.872;6.692;2023-04-03T05:41:07;4.07;;;3.77;;
3873;SDS011;1952;50.872;6.692;2023-04-03T05:43:36;4.03;;;3.33;;
3873;SDS011;1952;50.872;6.692;2023-04-03T05:46:08;3.53;;;3.23;;
3873;SDS011;1952;50.872;6.692;2023-04-03T05:48:36;3.90;;;3.60;;
3873;SDS011;1952;50.872;6.692;2023-04-03T05:51:05;2.80;;;2.60;;
3873;SDS011;1952;50.872;6.692;2023-04-03T06:32:41;3.50;;;2.90;;
3873;SDS011;1952;50.872;6.692;2023-04-03T06:35:11;4.00;;;3.20;;
3873;SDS011;1952;50.872;6.692;2023-04-03T06:37:54;3.30;;;3.00;;
3873;SDS011;1952;50.872;6.692;2023-04-03T06:40:38;4.00;;;3.07;;
3873;SDS011;1952;50.872;6.692;2023-04-03T06:43:10;3.43;;;3.07;;
3873;SDS011;1952;50.872;6.692;2023-04-03T06:45:42;3.03;;;2.80;;
3873;SDS011;1952;50.872;6.692;2023-04-03T06:48:19;3.13;;;2.83;;
3873;SDS011;1952;50.872;6.692;2023-04-03T06:51:03;4.07;;;3.70;;
3873;SDS011;1952;50.872;6.692;2023-04-03T06:53:32;3.33;;;3.00;;
3873;SDS011;1952;50.872;6.692;2023-04-03T06:56:08;4.13;;;3.37;;
3873;SDS011;1952;50.872;6.692;2023-04-03T06:58:41;3.40;;;3.10;;
3873;SDS011;1952;50.872;6.692;2023-04-03T07:01:18;7.73;;;4.00;;
3873;SDS011;1952;50.872;6.692;2023-04-03T07:06:55;3.87;;;3.47;;
3873;SDS011;1952;50.872;6.692;2023-04-03T07:09:25;3.70;;;3.20;;
3873;SDS011;1952;50.872;6.692;2023-04-03T07:12:08;4.60;;;3.27;;
3873;SDS011;1952;50.872;6.692;2023-04-03T07:14:56;3.73;;;3.10;;
3873;SDS011;1952;50.872;6.692;2023-04-03T07:17:26;3.23;;;2.80;;
3873;SDS011;1952;50.872;6.692;2023-04-03T07:20:25;3.60;;;3.30;;
3873;SDS011;1952;50.872;6.692;2023-04-03T07:26:22;3.97;;;3.27;;
3873;SDS011;1952;50.872;6.692;2023-04-03T07:29:01;3.70;;;3.30;;
3873;SDS011;1952;50.872;6.692;2023-04-03T07:31:58;3.40;;;3.20;;
3873;SDS011;1952;50.872;6.692;2023-04-03T07:34:58;3.43;;;3.13;;
3873;SDS011;1952;50.872;6.692;2023-04-03T07:37:51;4.27;;;3.33;;
3873;SDS011;1952;50.872;6.692;2023-04-03T07:40:35;4.73;;;3.80;;
3873;SDS011;1952;50.872;6.692;2023-04-03T07:43:17;4.10;;;2.57;;
3873;SDS011;1952;50.872;6.692;2023-04-03T07:45:50;3.60;;;3.17;;
3873;SDS011;1952;50.872;6.692;2023-04-03T07:48:37;4.20;;;2.77;;
3873;SDS011;1952;50.872;6.692;2023-04-03T07:51:09;2.73;;;2.53;;
3873;SDS011;1952;50.872;6.692;2023-04-03T07:53:43;3.30;;;2.70;;
3873;SDS011;1952;50.872;6.692;2023-04-03T07:56:15;2.70;;;2.50;;
3873;SDS011;1952;50.872;6.692;2023-04-03T07:59:07;2.83;;;2.60;;
3873;SDS011;1952;50.872;6.692;2023-04-03T08:01:43;4.20;;;2.90;;
3873;SDS011;1952;50.872;6.692;2023-04-03T08:04:15;4.50;;;3.03;;
3873;SDS011;1952;50.872;6.692;2023-04-03T08:07:00;3.17;;;2.80;;
3873;SDS011;1952;50.872;6.692;2023-04-03T08:09:38;2.70;;;2.50;;
3873;SDS011;1952;50.872;6.692;2023-04-03T08:12:10;2.73;;;2.53;;
3873;SDS011;1952;50.872;6.692;2023-04-03T08:14:58;3.80;;;2.43;;
3873;SDS011;1952;50.872;6.692;2023-04-03T08:17:32;4.23;;;2.73;;
3873;SDS011;1952;50.872;6.692;2023-04-03T08:20:26;3.37;;;3.10;;
3873;SDS011;1952;50.872;6.692;2023-04-03T08:22:56;4.73;;;2.70;;
3873;SDS011;1952;50.872;6.692;2023-04-03T08:25:29;4.43;;;3.30;;
3873;SDS011;1952;50.872;6.692;2023-04-03T08:28:25;2.87;;;2.67;;
3873;SDS011;1952;50.872;6.692;2023-04-03T08:31:32;5.93;;;2.63;;
3873;SDS011;1952;50.872;6.692;2023-04-03T08:34:05;4.67;;;2.63;;
3873;SDS011;1952;50.872;6.692;2023-04-03T08:36:43;4.23;;;3.13;;
3873;SDS011;1952;50.872;6.692;2023-04-03T08:39:43;3.40;;;3.10;;
3873;SDS011;1952;50.872;6.692;2023-04-03T08:42:54;3.80;;;2.10;;
3873;SDS011;1952;50.872;6.692;2023-04-03T08:45:57;2.87;;;2.63;;
3873;SDS011;1952;50.872;6.692;2023-04-03T08:55:27;5.23;;;2.60;;
3873;SDS011;1952;50.872;6.692;2023-04-03T08:58:00;3.13;;;2.50;;
3873;SDS011;1952;50.872;6.692;2023-04-03T09:00:37;3.00;;;2.70;;
3873;SDS011;1952;50.872;6.692;2023-04-03T09:03:21;3.00;;;2.63;;
3873;SDS011;1952;50.872;6.692;2023-04-03T09:06:03;4.60;;;2.50;;
3873;SDS011;1952;50.872;6.692;2023-04-03T09:08:49;5.97;;;2.97;;
3873;SDS011;1952;50.872;6.692;2023-04-03T09:11:33;2.93;;;2.63;;
3873;SDS011;1952;50.872;6.692;2023-04-03T09:14:15;3.13;;;2.70;;
3873;SDS011;1952;50.872;6.692;2023-04-03T09:17:15;2.97;;;2.17;;
3873;SDS011;1952;50.872;6.692;2023-04-03T09:20:08;5.77;;;2.73;;
3873;SDS011;1952;50.872;6.692;2023-04-03T09:23:16;7.03;;;3.40;;
3873;SDS011;1952;50.872;6.692;2023-04-03T09:26:03;2.63;;;2.43;;
3873;SDS011;1952;50.872;6.692;2023-04-03T09:32:11;3.40;;;2.33;;
3873;SDS011;1952;50.872;6.692;2023-04-03T09:35:04;2.47;;;2.20;;
3873;SDS011;1952;50.872;6.692;2023-04-03T09:37:48;4.33;;;2.07;;
3873;SDS011;1952;50.872;6.692;2023-04-03T09:40:32;2.37;;;1.80;;
3873;SDS011;1952;50.872;6.692;2023-04-03T09:43:23;4.03;;;2.20;;
3873;SDS011;1952;50.872;6.692;2023-04-03T09:46:25;3.53;;;3.23;;
3873;SDS011;1952;50.872;6.692;2023-04-03T09:58:40;2.10;;;1.90;;
3873;SDS011;1952;50.872;6.692;2023-04-03T10:01:27;2.97;;;2.40;;
3873;SDS011;1952;50.872;6.692;2023-04-03T10:04:08;2.70;;;2.17;;
3873;SDS011;1952;50.872;6.692;2023-04-03T10:07:29;5.13;;;3.90;;
3873;SDS011;1952;50.872;6.692;2023-04-03T10:09:59;4.40;;;2.40;;
3873;SDS011;1952;50.872;6.692;2023-04-03T10:13:03;2.50;;;2.07;;
3873;SDS011;1952;50.872;6.692;2023-04-03T10:18:32;3.30;;;1.80;;
3873;SDS011;1952;50.872;6.692;2023-04-03T10:21:26;3.17;;;2.10;;
3873;SDS011;1952;50.872;6.692;2023-04-03T10:24:16;3.57;;;2.27;;
3873;SDS011;1952;50.872;6.692;2023-04-03T10:26:50;4.17;;;1.93;;
3873;SDS011;1952;50.872;6.692;2023-04-03T10:29:33;2.10;;;1.90;;
3873;SDS011;1952;50.872;6.692;2023-04-03T10:32:40;3.30;;;2.23;;
3873;SDS011;1952;50.872;6.692;2023-04-03T10:35:37;4.70;;;1.90;;
3873;SDS011;1952;50.872;6.692;2023-04-03T10:38:33;3.23;;;2.20;;
3873;SDS011;1952;50.872;6.692;2023-04-03T10:41:23;2.50;;;2.30;;
3873;SDS011;1952;50.872;6.692;2023-04-03T10:44:08;3.83;;;2.30;;
3873;SDS011;1952;50.872;6.692;2023-04-03T10:46:41;2.90;;;1.73;;
3873;SDS011;1952;50.872;6.692;2023-04-03T10:49:42;2.40;;;2.20;;
3873;SDS011;1952;50.872;6.692;2023-04-03T11:05:15;2.63;;;2.43;;
3873;SDS011;1952;50.872;6.692;2023-04-03T11:08:17;3.50;;;2.13;;
3873;SDS011;1952;50.872;6.692;2023-04-03T11:11:19;2.33;;;2.13;;
3873;SDS011;1952;50.872;6.692;2023-04-03T11:14:09;3.20;;;2.10;;
3873;SDS011;1952;50.872;6.692;2023-04-03T11:17:01;2.30;;;2.10;;
3873;SDS011;1952;50.872;6.692;2023-04-03T11:20:00;2.30;;;2.03;;
3873;SDS011;1952;50.872;6.692;2023-04-03T11:25:32;3.67;;;2.00;;
3873;SDS011;1952;50.872;6.692;2023-04-03T11:28:06;2.27;;;2.13;;
3873;SDS011;1952;50.872;6.692;2023-04-03T11:30:48;2.40;;;2.20;;
3873;SDS011;1952;50.872;6.692;2023-04-03T11:33:43;2.53;;;2.23;;
3873;SDS011;1952;50.872;6.692;2023-04-03T11:36:18;2.50;;;2.30;;
3873;SDS011;1952;50.872;6.692;2023-04-03T11:39:13;2.30;;;2.00;;
3873;SDS011;1952;50.872;6.692;2023-04-03T11:50:53;2.03;;;1.83;;
3873;SDS011;1952;50.872;6.692;2023-04-03T11:53:27;2.10;;;1.90;;
3873;SDS011;1952;50.872;6.692;2023-04-03T12:33:42;2.03;;;1.83;;
3873;SDS011;1952;50.872;6.692;2023-04-03T12:36:26;1.70;;;1.60;;
3873;SDS011;1952;50.872;6.692;2023-04-03T12:39:04;2.33;;;2.13;;
3873;SDS011;1952;50.872;6.692;2023-04-03T12:41:36;1.77;;;1.67;;
3873;SDS011;1952;50.872;6.692;2023-04-03T12:47:24;2.00;;;1.80;;
3873;SDS011;1952;50.872;6.692;2023-04-03T12:52:51;2.13;;;2.03;;
3873;SDS011;1952;50.872;6.692;2023-04-03T12:55:35;2.00;;;1.90;;
3873;SDS011;1952;50.872;6.692;2023-04-03T12:58:21;4.60;;;2.00;;
3873;SDS011;1952;50.872;6.692;2023-04-03T13:01:00;14.63;;;9.80;;
3873;SDS011;1952;50.872;6.692;2023-04-03T13:03:30;2.80;;;2.50;;
3873;SDS011;1952;50.872;6.692;2023-04-03T13:06:00;2.70;;;2.20;;
3873;SDS011;1952;50.872;6.692;2023-04-03T13:08:40;2.43;;;2.20;;
3873;SDS011;1952;50.872;6.692;2023-04-03T13:11:19;3.97;;;2.10;;
3873;SDS011;1952;50.872;6.692;2023-04-03T13:13:58;1.93;;;1.83;;
3873;SDS011;1952;50.872;6.692;2023-04-03T13:16:33;2.40;;;2.20;;
3873;SDS011;1952;50.872;6.692;2023-04-03T13:19:04;6.67;;;2.13;;
3873;SDS011;1952;50.872;6.692;2023-04-03T13:21:39;3.53;;;2.40;;
3873;SDS011;1952;50.872;6.692;2023-04-03T13:24:14;3.20;;;2.10;;
3873;SDS011;1952;50.872;6.692;2023-04-03T13:26:48;3.43;;;2.60;;
3873;SDS011;1952;50.872;6.692;2023-04-03T13:29:32;2.27;;;2.03;;
3873;SDS011;1952;50.872;6.692;2023-04-03T13:32:13;2.90;;;1.80;;
3873;SDS011;1952;50.872;6.692;2023-04-03T13:34:44;2.07;;;1.87;;
3873;SDS011;1952;50.872;6.692;2023-04-03T13:37:29;3.50;;;2.10;;
3873;SDS011;1952;50.872;6.692;2023-04-03T13:40:09;2.37;;;1.77;;
3873;SDS011;1952;50.872;6.692;2023-04-03T13:42:41;2.20;;;1.90;;
3873;SDS011;1952;50.872;6.692;2023-04-03T13:45:29;2.10;;;1.80;;
3873;SDS011;1952;50.872;6.692;2023-04-03T13:48:25;1.93;;;1.83;;
3873;SDS011;1952;50.872;6.692;2023-04-03T13:50:58;2.03;;;1.83;;
3873;SDS011;1952;50.872;6.692;2023-04-03T13:53:30;2.57;;;2.00;;
3873;SDS011;1952;50.872;6.692;2023-04-03T14:11:08;2.23;;;2.03;;
3873;SDS011;1952;50.872;6.692;2023-04-03T14:13:46;3.10;;;2.50;;
3873;SDS011;1952;50.872;6.692;2023-04-03T14:16:42;2.10;;;2.00;;
3873;SDS011;1952;50.872;6.692;2023-04-03T14:19:26;1.60;;;1.50;;
3873;SDS011;1952;50.872;6.692;2023-04-03T14:22:13;2.40;;;2.20;;
3873;SDS011;1952;50.872;6.692;2023-04-03T14:25:03;2.07;;;1.90;;
3873;SDS011;1952;50.872;6.692;2023-04-03T14:30:25;2.20;;;2.00;;
3873;SDS011;1952;50.872;6.692;2023-04-03T14:32:55;2.50;;;2.00;;
3873;SDS011;1952;50.872;6.692;2023-04-03T14:35:26;1.87;;;1.77;;
3873;SDS011;1952;50.872;6.692;2023-04-03T14:37:55;2.50;;;2.20;;
3873;SDS011;1952;50.872;6.692;2023-04-03T14:40:30;2.00;;;1.90;;
3873;SDS011;1952;50.872;6.692;2023-04-03T14:42:59;2.30;;;2.10;;
3873;SDS011;1952;50.872;6.692;2023-04-03T14:45:33;2.80;;;2.03;;
3873;SDS011;1952;50.872;6.692;2023-04-03T14:48:19;2.40;;;2.00;;
3873;SDS011;1952;50.872;6.692;2023-04-03T14:51:04;3.10;;;1.87;;
3873;SDS011;1952;50.872;6.692;2023-04-03T14:54:00;2.40;;;2.13;;
3873;SDS011;1952;50.872;6.692;2023-04-03T14:56:44;2.00;;;1.90;;
3873;SDS011;1952;50.872;6.692;2023-04-03T14:59:34;3.37;;;2.47;;
3873;SDS011;1952;50.872;6.692;2023-04-03T15:02:08;2.00;;;1.80;;
3873;SDS011;1952;50.872;6.692;2023-04-03T15:04:47;2.70;;;1.70;;
3873;SDS011;1952;50.872;6.692;2023-04-03T15:07:33;2.13;;;1.90;;
3873;SDS011;1952;50.872;6.692;2023-04-03T15:13:01;2.37;;;2.17;;
3873;SDS011;1952;50.872;6.692;2023-04-03T15:15:38;2.77;;;2.40;;
3873;SDS011;1952;50.872;6.692;2023-04-03T15:18:13;2.10;;;2.00;;
3873;SDS011;1952;50.872;6.692;2023-04-03T15:20:42;2.30;;;2.10;;
3873;SDS011;1952;50.872;6.692;2023-04-03T15:23:27;2.27;;;2.17;;
3873;SDS011;1952;50.872;6.692;2023-04-03T15:26:11;2.50;;;2.00;;
3873;SDS011;1952;50.872;6.692;2023-04-03T15:28:42;3.03;;;2.33;;
3873;SDS011;1952;50.872;6.692;2023-04-03T15:31:11;3.67;;;2.50;;
3873;SDS011;1952;50.872;6.692;2023-04-03T15:33:43;2.90;;;2.13;;
3873;SDS011;1952;50.872;6.692;2023-04-03T15:36:12;2.30;;;2.20;;
3873;SDS011;1952;50.872;6.692;2023-04-03T15:39:00;3.23;;;1.97;;
3873;SDS011;1952;50.872;6.692;2023-04-03T15:41:38;2.63;;;2.10;;
3873;SDS011;1952;50.872;6.692;2023-04-03T15:44:12;2.80;;;2.03;;
3873;SDS011;1952;50.872;6.692;2023-04-03T15:46:57;2.27;;;2.13;;
3873;SDS011;1952;50.872;6.692;2023-04-03T15:49:29;2.23;;;2.03;;
3873;SDS011;1952;50.872;6.692;2023-04-03T15:51:59;2.33;;;1.83;;
3873;SDS011;1952;50.872;6.692;2023-04-03T15:54:29;1.80;;;1.70;;
3873;SDS011;1952;50.872;6.692;2023-04-03T15:57:00;2.50;;;2.30;;
3873;SDS011;1952;50.872;6.692;2023-04-03T15:59:32;3.47;;;2.17;;
3873;SDS011;1952;50.872;6.692;2023-04-03T16:02:01;2.80;;;2.13;;
3873;SDS011;1952;50.872;6.692;2023-04-03T16:04:34;2.70;;;2.30;;
3873;SDS011;1952;50.872;6.692;2023-04-03T16:07:05;4.80;;;3.43;;
3873;SDS011;1952;50.872;6.692;2023-04-03T16:09:34;2.10;;;2.00;;
3873;SDS011;1952;50.872;6.692;2023-04-03T16:12:03;3.00;;;1.87;;
3873;SDS011;1952;50.872;6.692;2023-04-03T16:14:59;2.10;;;2.00;;
3873;SDS011;1952;50.872;6.692;2023-04-03T16:17:29;1.80;;;1.70;;
3873;SDS011;1952;50.872;6.692;2023-04-03T16:20:00;2.17;;;1.80;;
3873;SDS011;1952;50.872;6.692;2023-04-03T16:22:48;4.63;;;2.30;;
3873;SDS011;1952;50.872;6.692;2023-04-03T16:25:21;2.07;;;1.97;;
3873;SDS011;1952;50.872;6.692;2023-04-03T16:27:51;2.30;;;2.10;;
3873;SDS011;1952;50.872;6.692;2023-04-03T16:30:20;2.10;;;1.90;;
3873;SDS011;1952;50.872;6.692;2023-04-03T16:32:49;2.90;;;2.60;;
3873;SDS011;1952;50.872;6.692;2023-04-03T16:35:25;3.17;;;2.10;;
3873;SDS011;1952;50.872;6.692;2023-04-03T16:37:57;1.90;;;1.80;;
3873;SDS011;1952;50.872;6.692;2023-04-03T16:40:38;2.27;;;2.07;;
3873;SDS011;1952;50.872;6.692;2023-04-03T16:43:08;2.17;;;1.77;;
3873;SDS011;1952;50.872;6.692;2023-04-03T16:46:04;2.80;;;1.83;;
3873;SDS011;1952;50.872;6.692;2023-04-03T16:48:37;5.10;;;2.20;;
3873;SDS011;1952;50.872;6.692;2023-04-03T16:51:35;2.10;;;1.93;;
3873;SDS011;1952;50.872;6.692;2023-04-03T16:54:07;4.53;;;3.10;;
3873;SDS011;1952;50.872;6.692;2023-04-03T16:56:36;2.13;;;1.93;;
3873;SDS011;1952;50.872;6.692;2023-04-03T16:59:07;2.40;;;1.53;;
3873;SDS011;1952;50.872;6.692;2023-04-03T17:01:35;3.77;;;2.17;;
3873;SDS011;1952;50.872;6.692;2023-04-03T17:04:05;4.30;;;1.90;;
3873;SDS011;1952;50.872;6.692;2023-04-03T17:06:39;2.50;;;2.10;;
3873;SDS011;1952;50.872;6.692;2023-04-03T17:09:08;4.57;;;1.83;;
3873;SDS011;1952;50.872;6.692;2023-04-03T17:11:38;2.60;;;1.97;;
3873;SDS011;1952;50.872;6.692;2023-04-03T17:14:08;1.80;;;1.60;;
3873;SDS011;1952;50.872;6.692;2023-04-03T17:16:37;3.53;;;2.00;;
3873;SDS011;1952;50.872;6.692;2023-04-03T17:19:06;3.57;;;2.53;;
3873;SDS011;1952;50.872;6.692;2023-04-03T17:21:36;3.00;;;2.13;;
3873;SDS011;1952;50.872;6.692;2023-04-03T17:26:51;3.77;;;2.43;;
3873;SDS011;1952;50.872;6.692;2023-04-03T17:29:24;2.17;;;1.97;;
3873;SDS011;1952;50.872;6.692;2023-04-03T17:32:07;2.53;;;2.20;;
3873;SDS011;1952;50.872;6.692;2023-04-03T17:34:35;1.70;;;1.60;;
3873;SDS011;1952;50.872;6.692;2023-04-03T17:37:07;2.13;;;1.93;;
3873;SDS011;1952;50.872;6.692;2023-04-03T17:39:36;2.03;;;1.87;;
3873;SDS011;1952;50.872;6.692;2023-04-03T17:42:06;1.80;;;1.70;;
3873;SDS011;1952;50.872;6.692;2023-04-03T17:44:35;2.73;;;2.03;;
3873;SDS011;1952;50.872;6.692;2023-04-03T17:47:05;2.80;;;1.57;;
3873;SDS011;1952;50.872;6.692;2023-04-03T17:49:40;4.10;;;2.60;;
3873;SDS011;1952;50.872;6.692;2023-04-03T17:52:08;3.07;;;2.50;;
3873;SDS011;1952;50.872;6.692;2023-04-03T18:35:21;3.90;;;1.87;;
3873;SDS011;1952;50.872;6.692;2023-04-03T18:38:04;3.70;;;2.23;;
3873;SDS011;1952;50.872;6.692;2023-04-03T18:40:33;3.53;;;2.03;;
3873;SDS011;1952;50.872;6.692;2023-04-03T18:43:15;3.30;;;3.00;;
3873;SDS011;1952;50.872;6.692;2023-04-03T18:45:44;2.93;;;2.60;;
3873;SDS011;1952;50.872;6.692;2023-04-03T18:48:20;2.70;;;1.97;;
3873;SDS011;1952;50.872;6.692;2023-04-03T18:53:40;3.77;;;3.47;;
3873;SDS011;1952;50.872;6.692;2023-04-03T18:56:08;1.97;;;1.87;;
3873;SDS011;1952;50.872;6.692;2023-04-03T18:58:38;2.50;;;2.40;;
3873;SDS011;1952;50.872;6.692;2023-04-03T19:01:08;2.30;;;2.20;;
3873;SDS011;1952;50.872;6.692;2023-04-03T19:03:52;2.23;;;2.10;;
3873;SDS011;1952;50.872;6.692;2023-04-03T19:06:21;2.20;;;2.00;;
3873;SDS011;1952;50.872;6.692;2023-04-03T19:09:06;2.30;;;2.10;;
3873;SDS011;1952;50.872;6.692;2023-04-03T19:11:37;2.40;;;2.30;;
3873;SDS011;1952;50.872;6.692;2023-04-03T19:14:06;2.87;;;2.50;;
3873;SDS011;1952;50.872;6.692;2023-04-03T19:16:42;1.90;;;1.77;;
3873;SDS011;1952;50.872;6.692;2023-04-03T19:19:15;1.70;;;1.60;;
3873;SDS011;1952;50.872;6.692;2023-04-03T19:21:50;3.30;;;2.23;;
3873;SDS011;1952;50.872;6.692;2023-04-03T19:24:22;2.50;;;2.20;;
3873;SDS011;1952;50.872;6.692;2023-04-03T19:26:52;1.90;;;1.80;;
3873;SDS011;1952;50.872;6.692;2023-04-03T19:29:22;5.73;;;2.07;;
3873;SDS011;1952;50.872;6.692;2023-04-03T19:32:09;3.40;;;2.10;;
3873;SDS011;1952;50.872;6.692;2023-04-03T19:34:43;2.57;;;2.37;;
3873;SDS011;1952;50.872;6.692;2023-04-03T19:37:13;4.17;;;3.00;;
3873;SDS011;1952;50.872;6.692;2023-04-03T19:39:44;2.37;;;2.17;;
3873;SDS011;1952;50.872;6.692;2023-04-03T19:42:13;4.27;;;3.13;;
3873;SDS011;1952;50.872;6.692;2023-04-03T19:44:44;2.43;;;2.33;;
3873;SDS011;1952;50.872;6.692;2023-04-03T19:47:15;4.20;;;3.90;;
3873;SDS011;1952;50.872;6.692;2023-04-03T19:50:13;3.63;;;2.27;;
3873;SDS011;1952;50.872;6.692;2023-04-03T19:52:41;2.40;;;2.20;;
3873;SDS011;1952;50.872;6.692;2023-04-03T19:55:12;2.20;;;2.10;;
3873;SDS011;1952;50.872;6.692;2023-04-03T19:57:41;5.37;;;2.67;;
3873;SDS011;1952;50.872;6.692;2023-04-03T20:00:09;5.90;;;2.83;;